createdAt,value
2017-07-14T00:00:46.373Z,5.00
2017-07-14T00:03:13.895Z,4.80
2017-07-14T00:05:41.749Z,5.07
2017-07-14T00:08:09.273Z,4.33
2017-07-14T00:10:36.799Z,5.20
2017-07-14T00:13:05.469Z,4.87
2017-07-14T00:15:32.997Z,4.00
2017-07-14T00:18:00.567Z,3.80
2017-07-14T00:20:28.115Z,4.80
2017-07-14T00:22:55.653Z,5.63
2017-07-14T00:25:23.211Z,5.47
2017-07-14T00:27:50.749Z,5.10
2017-07-14T00:30:18.255Z,5.63
2017-07-14T00:32:45.816Z,6.10
2017-07-14T00:35:13.353Z,6.87
2017-07-14T00:37:40.862Z,5.83
2017-07-14T00:40:09.157Z,5.60
2017-07-14T00:42:37.181Z,5.20
2017-07-14T00:45:04.703Z,4.80
2017-07-14T00:47:32.225Z,4.20
2017-07-14T00:49:59.781Z,5.43
2017-07-14T00:52:27.298Z,5.70
2017-07-14T00:54:54.839Z,5.90
2017-07-14T00:57:22.359Z,4.83
2017-07-14T00:59:50.642Z,4.37
2017-07-14T01:02:18.974Z,6.03
2017-07-14T01:04:46.553Z,5.20
2017-07-14T01:07:14.098Z,4.53
2017-07-14T01:09:41.624Z,4.70
2017-07-14T01:12:09.524Z,5.40
2017-07-14T01:14:37.049Z,4.43
2017-07-14T01:17:04.583Z,4.30
2017-07-14T01:19:32.100Z,5.13
2017-07-14T01:21:59.630Z,4.60
2017-07-14T01:24:27.175Z,4.67
2017-07-14T01:26:54.707Z,5.20
2017-07-14T01:29:22.236Z,4.30
2017-07-14T01:31:49.774Z,4.87
2017-07-14T01:34:17.661Z,4.30
2017-07-14T01:36:45.169Z,3.90
2017-07-14T01:39:13.444Z,4.53
2017-07-14T01:41:42.066Z,4.30
2017-07-14T01:44:09.589Z,4.23
2017-07-14T01:46:37.110Z,4.50
2017-07-14T01:49:05.059Z,4.63
2017-07-14T01:51:32.574Z,4.47
2017-07-14T01:54:00.099Z,4.90
2017-07-14T01:56:27.644Z,4.53
2017-07-14T01:58:55.179Z,5.23
2017-07-14T02:01:22.703Z,5.20
2017-07-14T02:03:50.536Z,5.70
2017-07-14T02:06:18.046Z,5.90
2017-07-14T02:08:45.559Z,5.03
2017-07-14T02:11:13.346Z,4.80
2017-07-14T02:13:40.871Z,5.03
2017-07-14T02:16:08.407Z,4.63
2017-07-14T02:18:35.954Z,5.07
2017-07-14T02:21:03.477Z,5.20
2017-07-14T02:23:31.794Z,5.40
2017-07-14T02:25:59.343Z,5.03
2017-07-14T02:28:26.881Z,5.07
2017-07-14T02:30:54.471Z,5.10
2017-07-14T02:33:22.050Z,4.60
2017-07-14T02:35:49.602Z,4.80
2017-07-14T02:38:17.142Z,4.80
2017-07-14T02:40:44.674Z,4.53
2017-07-14T02:43:13.017Z,5.23
2017-07-14T02:45:40.534Z,5.10
2017-07-14T02:48:08.428Z,5.20
2017-07-14T02:50:35.936Z,4.93
2017-07-14T02:53:04.208Z,5.30
2017-07-14T02:55:32.517Z,5.30
2017-07-14T02:58:00.052Z,5.40
2017-07-14T03:00:27.600Z,4.90
2017-07-14T03:02:56.238Z,5.40
2017-07-14T03:05:23.772Z,5.30
2017-07-14T03:07:51.277Z,5.00
2017-07-14T03:10:19.090Z,5.37
2017-07-14T03:12:46.599Z,5.50
2017-07-14T03:15:14.105Z,4.97
2017-07-14T03:17:41.659Z,5.20
2017-07-14T03:20:09.172Z,4.80
2017-07-14T03:22:36.707Z,5.10
2017-07-14T03:25:04.255Z,4.70
2017-07-14T03:27:31.784Z,5.40
2017-07-14T03:29:59.324Z,5.10
2017-07-14T03:32:27.166Z,5.40
2017-07-14T03:34:54.715Z,5.63
2017-07-14T03:37:22.262Z,5.70
2017-07-14T03:39:49.806Z,5.50
2017-07-14T03:42:17.345Z,5.27
2017-07-14T03:44:44.903Z,5.30
2017-07-14T03:47:12.469Z,5.20
2017-07-14T03:49:40.004Z,5.90
2017-07-14T03:52:07.555Z,5.30
2017-07-14T03:54:35.079Z,6.07
2017-07-14T03:57:02.605Z,4.73
2017-07-14T03:59:30.124Z,4.93
2017-07-14T04:01:57.679Z,5.53
2017-07-14T04:04:25.242Z,4.90
2017-07-14T04:06:52.770Z,5.40
2017-07-14T04:09:20.657Z,5.23
2017-07-14T04:11:48.170Z,4.70
2017-07-14T04:14:15.682Z,4.60
2017-07-14T04:16:43.224Z,3.93
2017-07-14T04:19:10.739Z,3.90
2017-07-14T04:21:38.287Z,5.00
2017-07-14T04:24:05.802Z,5.90
2017-07-14T04:26:35.169Z,5.00
2017-07-14T04:29:02.706Z,5.53
2017-07-14T04:31:30.238Z,4.77
2017-07-14T04:33:58.112Z,5.10
2017-07-14T04:36:25.666Z,4.40
2017-07-14T04:38:54.044Z,4.43
2017-07-14T04:41:21.668Z,4.77
2017-07-14T04:43:50.127Z,6.60
2017-07-14T04:46:17.659Z,5.90
2017-07-14T04:48:45.475Z,5.23
2017-07-14T04:51:13.029Z,4.67
2017-07-14T04:53:40.548Z,5.40
2017-07-14T04:56:08.124Z,5.40
2017-07-14T04:58:35.728Z,6.13
2017-07-14T05:01:03.274Z,5.20
2017-07-14T05:03:30.823Z,4.70
2017-07-14T05:05:58.408Z,4.67
2017-07-14T05:08:25.970Z,4.83
2017-07-14T05:10:53.584Z,5.30
2017-07-14T05:13:21.135Z,6.00
2017-07-14T05:15:49.422Z,5.27
2017-07-14T05:18:17.242Z,6.03
2017-07-14T05:20:44.785Z,6.43
2017-07-14T05:23:12.339Z,5.73
2017-07-14T05:25:40.198Z,5.63
2017-07-14T05:28:07.734Z,5.07
2017-07-14T05:30:35.259Z,6.30
2017-07-14T05:33:06.970Z,6.60
2017-07-14T05:35:34.518Z,5.97
2017-07-14T05:38:02.037Z,5.63
2017-07-14T05:40:30.689Z,6.00
2017-07-14T05:42:58.207Z,5.90
2017-07-14T05:45:25.707Z,6.43
2017-07-14T05:47:53.265Z,6.70
2017-07-14T05:50:20.790Z,5.83
2017-07-14T05:52:48.783Z,5.43
2017-07-14T05:55:16.317Z,5.27
2017-07-14T05:57:43.817Z,5.27
2017-07-14T06:00:11.364Z,5.67
2017-07-14T06:02:38.903Z,5.00
2017-07-14T06:05:06.464Z,5.37
2017-07-14T06:07:34.001Z,6.10
2017-07-14T06:10:02.031Z,5.30
2017-07-14T06:12:29.542Z,5.20
2017-07-14T06:14:57.097Z,5.10
2017-07-14T06:17:24.631Z,5.87
2017-07-14T06:19:52.918Z,5.80
2017-07-14T06:22:20.468Z,6.03
2017-07-14T06:24:48.273Z,6.20
2017-07-14T06:27:15.820Z,5.93
2017-07-14T06:29:43.339Z,5.77
2017-07-14T06:32:10.880Z,6.90
2017-07-14T06:34:38.434Z,6.87
2017-07-14T06:37:05.966Z,6.20
2017-07-14T06:39:33.766Z,6.10
2017-07-14T06:42:01.286Z,6.00
2017-07-14T06:44:28.814Z,5.33
2017-07-14T06:46:56.360Z,5.10
2017-07-14T06:49:24.643Z,5.07
2017-07-14T06:51:52.962Z,4.67
2017-07-14T06:54:20.503Z,4.30
2017-07-14T06:56:48.052Z,4.43
2017-07-14T06:59:15.586Z,5.00
2017-07-14T07:01:43.146Z,4.27
2017-07-14T07:04:11.484Z,4.03
2017-07-14T07:06:38.997Z,4.00
2017-07-14T07:09:06.973Z,4.03
2017-07-14T07:11:34.524Z,3.30
2017-07-14T07:14:02.062Z,3.67
2017-07-14T07:16:29.936Z,3.70
2017-07-14T07:19:00.848Z,3.60
2017-07-14T07:21:28.606Z,3.97
2017-07-14T07:23:56.688Z,4.17
2017-07-14T07:26:24.250Z,3.77
2017-07-14T07:28:53.490Z,3.97
2017-07-14T07:31:21.310Z,3.73
2017-07-14T07:33:49.861Z,3.90
2017-07-14T07:36:17.470Z,4.27
2017-07-14T07:38:45.265Z,4.50
2017-07-14T07:41:12.797Z,4.10
2017-07-14T07:43:40.335Z,3.80
2017-07-14T07:46:07.882Z,3.90
2017-07-14T07:48:41.478Z,3.40
2017-07-14T07:51:09.484Z,3.20
2017-07-14T07:53:37.022Z,3.43
2017-07-14T07:56:04.624Z,3.10
2017-07-14T07:58:32.451Z,3.10
2017-07-14T08:00:59.999Z,3.47
2017-07-14T08:03:27.530Z,2.43
2017-07-14T08:05:55.094Z,2.30
2017-07-14T08:08:22.619Z,2.80
2017-07-14T08:10:50.158Z,2.37
2017-07-14T08:13:18.489Z,2.50
2017-07-14T08:15:46.072Z,2.53
2017-07-14T08:18:13.607Z,3.00
2017-07-14T08:20:41.597Z,2.77
2017-07-14T08:23:09.160Z,3.13
2017-07-14T08:25:36.708Z,2.80
2017-07-14T08:28:04.514Z,3.50
2017-07-14T08:30:32.043Z,2.70
2017-07-14T08:32:59.579Z,3.30
2017-07-14T08:35:27.366Z,2.53
2017-07-14T08:37:55.737Z,2.87
2017-07-14T08:40:23.329Z,3.33
2017-07-14T08:42:51.180Z,2.80
2017-07-14T08:45:18.713Z,3.23
2017-07-14T08:47:46.248Z,2.70
2017-07-14T08:50:14.064Z,2.93
2017-07-14T08:52:41.590Z,3.00
2017-07-14T08:55:09.109Z,2.60
2017-07-14T08:57:37.422Z,2.57
2017-07-14T09:00:04.959Z,2.70
2017-07-14T09:02:32.503Z,2.43
2017-07-14T09:05:00.803Z,3.03
2017-07-14T09:07:28.370Z,2.70
2017-07-14T09:09:55.899Z,3.17
2017-07-14T09:12:24.547Z,2.47
2017-07-14T09:14:52.076Z,2.80
2017-07-14T09:17:19.613Z,2.90
2017-07-14T09:19:47.414Z,3.13
2017-07-14T09:22:15.896Z,3.10
2017-07-14T09:24:44.072Z,2.70
2017-07-14T09:27:12.988Z,3.13
2017-07-14T09:29:40.513Z,2.70
2017-07-14T09:32:08.027Z,3.50
2017-07-14T09:34:35.596Z,2.90
2017-07-14T09:37:03.929Z,2.80
2017-07-14T09:39:31.479Z,3.17
2017-07-14T09:41:59.021Z,3.03
2017-07-14T09:44:26.550Z,3.70
2017-07-14T09:46:54.106Z,3.10
2017-07-14T09:49:22.506Z,3.27
2017-07-14T09:51:50.117Z,3.20
2017-07-14T09:54:17.745Z,3.87
2017-07-14T09:56:47.330Z,3.53
2017-07-14T09:59:14.859Z,4.83
2017-07-14T10:01:42.392Z,3.30
2017-07-14T10:04:10.267Z,3.20
2017-07-14T10:06:37.841Z,3.23
2017-07-14T10:09:05.370Z,3.20
2017-07-14T10:11:32.930Z,3.07
2017-07-14T10:14:00.474Z,3.10
2017-07-14T10:16:28.026Z,3.90
2017-07-14T10:18:55.593Z,3.27
2017-07-14T10:21:23.166Z,3.67
2017-07-14T10:23:50.954Z,3.33
2017-07-14T10:26:18.518Z,3.67
2017-07-14T10:28:46.063Z,3.40
2017-07-14T10:31:13.591Z,3.60
2017-07-14T10:33:41.106Z,3.83
2017-07-14T10:36:08.645Z,3.47
2017-07-14T10:38:36.442Z,3.10
2017-07-14T10:41:03.993Z,3.77
2017-07-14T10:43:31.534Z,3.70
2017-07-14T10:45:59.106Z,3.50
2017-07-14T10:48:27.442Z,3.47
2017-07-14T10:50:54.987Z,3.40
2017-07-14T10:53:22.883Z,3.60
2017-07-14T10:55:50.408Z,3.70
2017-07-14T10:58:17.934Z,3.00
2017-07-14T11:00:45.853Z,3.00
2017-07-14T11:03:13.384Z,3.17
2017-07-14T11:05:40.910Z,3.13
2017-07-14T11:08:08.828Z,3.40
2017-07-14T11:10:36.684Z,3.50
2017-07-14T11:13:04.225Z,3.30
2017-07-14T11:15:31.804Z,3.20
2017-07-14T11:17:59.385Z,3.00
2017-07-14T11:20:27.339Z,3.60
2017-07-14T11:22:54.860Z,4.70
2017-07-14T11:25:23.155Z,4.50
2017-07-14T11:27:51.141Z,4.63
2017-07-14T11:30:18.670Z,4.27
2017-07-14T11:32:46.198Z,4.60
2017-07-14T11:35:13.748Z,4.63
2017-07-14T11:37:41.306Z,4.53
2017-07-14T11:40:08.883Z,5.13
2017-07-14T11:42:36.421Z,4.27
2017-07-14T11:45:04.048Z,3.90
2017-07-14T11:47:31.597Z,4.07
2017-07-14T11:49:59.148Z,3.40
2017-07-14T11:52:26.705Z,3.50
2017-07-14T11:54:54.240Z,3.80
2017-07-14T11:57:22.191Z,4.03
2017-07-14T11:59:49.706Z,3.80
2017-07-14T12:02:17.232Z,3.80
2017-07-14T12:04:45.403Z,4.70
2017-07-14T12:07:13.705Z,4.37
2017-07-14T12:09:41.273Z,4.03
2017-07-14T12:12:08.854Z,4.07
2017-07-14T12:14:36.404Z,4.20
2017-07-14T12:17:03.936Z,4.70
2017-07-14T12:19:31.723Z,4.20
2017-07-14T12:21:59.274Z,4.50
2017-07-14T12:24:26.821Z,4.83
2017-07-14T12:26:54.638Z,4.90
2017-07-14T12:29:22.977Z,4.60
2017-07-14T12:31:50.546Z,4.10
2017-07-14T12:34:18.111Z,4.60
2017-07-14T12:36:45.649Z,4.10
2017-07-14T12:39:13.293Z,5.03
2017-07-14T12:41:40.882Z,5.10
2017-07-14T12:44:08.679Z,4.33
2017-07-14T12:46:36.224Z,4.67
2017-07-14T12:49:03.742Z,4.27
2017-07-14T12:51:31.610Z,4.00
2017-07-14T12:53:59.171Z,4.10
2017-07-14T12:56:26.812Z,4.30
2017-07-14T12:58:55.123Z,4.53
2017-07-14T13:01:22.680Z,3.93
2017-07-14T13:03:50.244Z,3.93
2017-07-14T13:06:18.333Z,5.87
2017-07-14T13:08:45.890Z,5.23
2017-07-14T13:11:13.417Z,4.00
2017-07-14T13:13:41.253Z,4.30
2017-07-14T13:16:08.851Z,4.47
2017-07-14T13:18:38.424Z,4.30
2017-07-14T13:21:06.264Z,4.37
2017-07-14T13:23:33.869Z,3.30
2017-07-14T13:26:01.394Z,3.90
2017-07-14T13:28:29.324Z,3.90
2017-07-14T13:30:56.931Z,4.00
2017-07-14T13:33:25.314Z,3.50
2017-07-14T13:35:53.161Z,4.37
2017-07-14T13:38:20.784Z,3.40
2017-07-14T13:40:48.312Z,3.60
2017-07-14T13:43:16.900Z,3.80
2017-07-14T13:45:46.207Z,3.77
2017-07-14T13:48:13.733Z,3.40
2017-07-14T13:50:41.287Z,3.83
2017-07-14T13:53:08.977Z,3.47
2017-07-14T13:55:37.273Z,3.27
2017-07-14T13:58:05.630Z,3.90
2017-07-14T14:00:33.158Z,3.80
2017-07-14T14:03:00.694Z,3.93
2017-07-14T14:05:28.521Z,3.37
2017-07-14T14:07:56.812Z,3.80
2017-07-14T14:10:24.335Z,3.80
2017-07-14T14:12:52.375Z,3.13
2017-07-14T14:15:19.997Z,3.30
2017-07-14T14:17:51.644Z,3.30
2017-07-14T14:20:19.604Z,3.10
2017-07-14T14:22:47.131Z,2.73
2017-07-14T14:25:14.658Z,2.93
2017-07-14T14:27:42.207Z,3.00
2017-07-14T14:30:09.786Z,2.87
2017-07-14T14:32:37.336Z,2.93
2017-07-14T14:35:04.883Z,2.73
2017-07-14T14:37:32.826Z,3.10
2017-07-14T14:40:01.163Z,3.10
2017-07-14T14:42:28.692Z,3.30
2017-07-14T14:44:56.500Z,3.40
2017-07-14T14:47:24.059Z,3.10
2017-07-14T14:49:51.578Z,2.90
2017-07-14T14:52:19.154Z,2.93
2017-07-14T14:54:46.767Z,3.40
2017-07-14T14:57:14.302Z,3.50
2017-07-14T14:59:41.830Z,3.67
2017-07-14T15:02:09.380Z,3.90
2017-07-14T15:04:37.288Z,3.77
2017-07-14T15:07:04.808Z,3.40
2017-07-14T15:09:32.318Z,3.47
2017-07-14T15:11:59.917Z,3.40
2017-07-14T15:14:31.085Z,3.50
2017-07-14T15:16:58.702Z,3.87
2017-07-14T15:19:26.298Z,3.53
2017-07-14T15:21:54.137Z,3.30
2017-07-14T15:24:21.804Z,3.67
2017-07-14T15:26:49.674Z,3.63
2017-07-14T15:29:17.551Z,3.00
2017-07-14T15:31:45.102Z,2.83
2017-07-14T15:34:12.679Z,2.90
2017-07-14T15:36:41.414Z,2.97
2017-07-14T15:39:08.949Z,3.00
2017-07-14T15:41:36.548Z,2.60
2017-07-14T15:44:04.146Z,3.47
2017-07-14T15:46:32.007Z,2.97
2017-07-14T15:48:59.617Z,3.37
2017-07-14T15:51:27.249Z,3.03
2017-07-14T15:53:55.097Z,3.43
2017-07-14T15:56:22.725Z,3.07
2017-07-14T15:58:50.328Z,2.97
2017-07-14T16:01:17.865Z,3.00
2017-07-14T16:03:45.394Z,2.97
2017-07-14T16:06:12.939Z,2.57
2017-07-14T16:08:40.484Z,2.90
2017-07-14T16:11:08.014Z,3.07
2017-07-14T16:13:35.589Z,3.20
2017-07-14T16:16:03.239Z,3.10
2017-07-14T16:18:30.822Z,3.10
2017-07-14T16:20:58.350Z,3.00
2017-07-14T16:23:26.639Z,2.40
2017-07-14T16:25:54.268Z,2.87
2017-07-14T16:28:21.972Z,2.30
2017-07-14T16:30:49.545Z,2.90
2017-07-14T16:33:17.922Z,2.77
2017-07-14T16:35:45.446Z,2.53
2017-07-14T16:38:13.120Z,1.83
2017-07-14T16:40:40.680Z,2.10
2017-07-14T16:43:08.221Z,2.13
2017-07-14T16:45:36.372Z,2.30
2017-07-14T16:48:03.981Z,2.23
2017-07-14T16:50:31.528Z,2.50
2017-07-14T16:52:59.095Z,2.20
2017-07-14T16:55:26.643Z,1.97
2017-07-14T16:57:54.339Z,2.70
2017-07-14T17:00:22.193Z,2.40
2017-07-14T17:02:49.783Z,2.47
2017-07-14T17:05:17.362Z,2.20
2017-07-14T17:07:45.195Z,2.60
2017-07-14T17:10:12.726Z,2.30
2017-07-14T17:12:40.245Z,2.30
2017-07-14T17:15:08.008Z,2.00
2017-07-14T17:17:35.552Z,1.70
2017-07-14T17:20:03.841Z,2.70
2017-07-14T17:22:31.401Z,2.57
2017-07-14T17:24:58.940Z,2.90
2017-07-14T17:27:27.253Z,4.07
2017-07-14T17:29:56.238Z,4.00
2017-07-14T17:32:23.876Z,6.60
2017-07-14T17:34:51.413Z,4.37
2017-07-14T17:37:18.957Z,4.00
2017-07-14T17:39:46.895Z,3.30
2017-07-14T17:42:14.728Z,3.30
2017-07-14T17:44:42.310Z,6.10
2017-07-14T17:47:10.334Z,4.37
2017-07-14T17:49:37.892Z,3.03
2017-07-14T17:52:05.462Z,2.90
2017-07-14T17:54:33.035Z,2.90
2017-07-14T17:57:00.589Z,2.83
2017-07-14T17:59:28.122Z,2.40
2017-07-14T18:01:55.676Z,2.47
2017-07-14T18:04:23.216Z,2.60
2017-07-14T18:06:50.783Z,2.50
2017-07-14T18:09:18.691Z,2.80
2017-07-14T18:11:46.209Z,2.20
2017-07-14T18:14:13.731Z,2.10
2017-07-14T18:16:41.368Z,2.47
2017-07-14T18:19:08.894Z,2.23
2017-07-14T18:21:36.413Z,2.13
2017-07-14T18:24:04.066Z,1.80
2017-07-14T18:26:31.604Z,1.77
2017-07-14T18:28:59.128Z,2.00
2017-07-14T18:31:26.712Z,1.90
2017-07-14T18:33:54.277Z,2.03
2017-07-14T18:36:21.809Z,1.90
2017-07-14T18:38:49.926Z,1.83
2017-07-14T18:41:17.589Z,1.87
2017-07-14T18:43:45.200Z,1.90
2017-07-14T18:46:13.007Z,1.87
2017-07-14T18:48:42.539Z,2.30
2017-07-14T18:51:10.167Z,2.10
2017-07-14T18:53:38.693Z,2.10
2017-07-14T18:56:06.213Z,2.50
2017-07-14T18:58:33.731Z,2.20
2017-07-14T19:01:01.969Z,2.10
2017-07-14T19:03:29.504Z,2.13
2017-07-14T19:05:57.921Z,2.17
2017-07-14T19:08:25.967Z,2.57
2017-07-14T19:10:53.557Z,2.80
2017-07-14T19:13:21.379Z,2.73
2017-07-14T19:15:48.933Z,2.47
2017-07-14T19:18:16.500Z,2.90
2017-07-14T19:20:44.307Z,2.90
2017-07-14T19:23:11.893Z,3.30
2017-07-14T19:25:39.486Z,4.03
2017-07-14T19:28:07.156Z,3.20
2017-07-14T19:30:34.738Z,3.43
2017-07-14T19:33:02.320Z,3.27
2017-07-14T19:35:30.144Z,3.47
2017-07-14T19:37:57.685Z,3.10
2017-07-14T19:40:25.307Z,4.27
2017-07-14T19:42:52.982Z,3.70
2017-07-14T19:45:20.610Z,3.70
2017-07-14T19:47:48.171Z,3.43
2017-07-14T19:50:16.013Z,3.87
2017-07-14T19:52:43.775Z,3.43
2017-07-14T19:55:11.453Z,3.27
2017-07-14T19:57:39.326Z,3.37
2017-07-14T20:00:06.958Z,3.40
2017-07-14T20:02:34.488Z,3.00
2017-07-14T20:05:02.083Z,3.60
2017-07-14T20:07:29.609Z,4.00
2017-07-14T20:09:57.179Z,3.60
2017-07-14T20:12:24.733Z,3.47
2017-07-14T20:14:52.310Z,3.77
2017-07-14T20:17:20.664Z,3.47
2017-07-14T20:19:48.524Z,4.40
2017-07-14T20:22:16.099Z,3.50
2017-07-14T20:24:43.640Z,4.67
2017-07-14T20:27:11.653Z,3.97
2017-07-14T20:29:39.959Z,3.90
2017-07-14T20:32:08.442Z,4.70
2017-07-14T20:34:37.515Z,3.27
2017-07-14T20:37:05.095Z,4.60
2017-07-14T20:39:32.618Z,3.83
2017-07-14T20:42:01.294Z,3.73
2017-07-14T20:44:28.929Z,3.90
2017-07-14T20:46:56.493Z,3.50
2017-07-14T20:49:24.075Z,3.80
2017-07-14T20:51:51.710Z,3.80
2017-07-14T20:54:19.340Z,4.17
2017-07-14T20:56:48.131Z,3.70
2017-07-14T20:59:15.675Z,3.90
2017-07-14T21:01:43.257Z,4.40
2017-07-14T21:04:10.850Z,3.97
2017-07-14T21:06:38.410Z,3.93
2017-07-14T21:09:06.099Z,3.90
2017-07-14T21:11:34.418Z,4.43
2017-07-14T21:14:01.947Z,4.13
2017-07-14T21:16:29.575Z,4.07
2017-07-14T21:18:57.503Z,4.30
2017-07-14T21:21:25.015Z,4.70
2017-07-14T21:23:52.535Z,4.43
2017-07-14T21:26:20.076Z,4.07
2017-07-14T21:28:47.630Z,4.10
2017-07-14T21:31:15.146Z,4.50
2017-07-14T21:33:42.685Z,4.40
2017-07-14T21:36:10.351Z,3.97
2017-07-14T21:38:37.882Z,4.20
2017-07-14T21:41:05.838Z,4.00
2017-07-14T21:43:33.418Z,4.00
2017-07-14T21:46:00.953Z,4.50
2017-07-14T21:48:28.480Z,4.90
2017-07-14T21:50:56.017Z,4.60
2017-07-14T21:53:23.563Z,4.30
2017-07-14T21:55:51.750Z,4.00
2017-07-14T21:58:19.291Z,4.40
2017-07-14T22:00:46.864Z,4.87
2017-07-14T22:03:14.418Z,4.00
2017-07-14T22:05:42.646Z,4.30
2017-07-14T22:08:10.330Z,4.10
2017-07-14T22:10:37.865Z,4.30
2017-07-14T22:13:05.449Z,3.60
2017-07-14T22:15:32.989Z,3.93
2017-07-14T22:18:00.806Z,3.27
2017-07-14T22:20:28.397Z,3.77
2017-07-14T22:22:56.707Z,4.00
2017-07-14T22:25:24.522Z,4.10
2017-07-14T22:27:52.063Z,4.53
2017-07-14T22:30:19.608Z,4.20
2017-07-14T22:32:47.170Z,3.63
2017-07-14T22:35:14.779Z,3.80
2017-07-14T22:37:42.314Z,4.20
2017-07-14T22:40:10.165Z,3.90
2017-07-14T22:42:37.690Z,3.80
2017-07-14T22:45:05.257Z,4.20
2017-07-14T22:47:32.802Z,3.40
2017-07-14T22:50:00.330Z,3.63
2017-07-14T22:52:29.827Z,4.17
2017-07-14T22:54:57.358Z,4.50
2017-07-14T22:57:24.887Z,4.47
2017-07-14T22:59:52.433Z,3.53
2017-07-14T23:02:19.963Z,4.00
2017-07-14T23:04:48.425Z,4.00
2017-07-14T23:07:15.942Z,3.47
2017-07-14T23:09:43.880Z,3.40
2017-07-14T23:12:12.217Z,3.40
2017-07-14T23:14:39.733Z,3.57
2017-07-14T23:17:07.537Z,4.10
2017-07-14T23:19:35.042Z,3.83
2017-07-14T23:22:02.554Z,3.50
2017-07-14T23:24:30.103Z,4.43
2017-07-14T23:26:57.645Z,3.17
2017-07-14T23:29:25.193Z,3.33
2017-07-14T23:31:52.730Z,3.90
2017-07-14T23:34:20.678Z,5.90
2017-07-14T23:36:48.186Z,3.60
2017-07-14T23:39:15.716Z,3.50
2017-07-14T23:41:43.257Z,3.67
2017-07-14T23:44:10.767Z,3.80
2017-07-14T23:46:38.305Z,4.30
2017-07-14T23:49:05.853Z,3.10
2017-07-14T23:51:34.147Z,3.10
2017-07-14T23:54:01.726Z,3.80
2017-07-14T23:56:29.613Z,2.80
2017-07-14T23:58:57.132Z,3.40
